createdAt,value
2022-11-23T00:03:30.859Z,2.38
2022-11-23T00:09:34.343Z,3.03
2022-11-23T00:15:42.123Z,3.47
2022-11-23T00:21:45.470Z,1.95
2022-11-23T00:27:48.983Z,3.25
2022-11-23T00:33:54.556Z,3.05
2022-11-23T00:39:57.921Z,2.08
2022-11-23T00:46:05.395Z,2.58
2022-11-23T00:52:10.074Z,3.58
2022-11-23T00:58:13.493Z,2.97
2022-11-23T01:04:17.156Z,1.70
2022-11-23T01:10:21.906Z,3.53
2022-11-23T01:16:26.492Z,4.28
2022-11-23T01:22:29.883Z,3.42
2022-11-23T01:28:34.626Z,2.72
2022-11-23T01:34:38.034Z,4.30
2022-11-23T01:40:42.364Z,5.00
2022-11-23T01:46:47.262Z,6.13
2022-11-23T01:52:50.846Z,2.25
2022-11-23T01:58:55.628Z,4.18
2022-11-23T02:05:02.172Z,7.22
2022-11-23T02:11:05.692Z,7.82
2022-11-23T02:17:09.726Z,9.68
2022-11-23T02:23:17.583Z,5.65
2022-11-23T02:29:24.261Z,10.57
2022-11-23T02:35:27.786Z,7.75
2022-11-23T02:41:36.240Z,4.68
2022-11-23T02:47:41.226Z,4.68
2022-11-23T02:53:44.615Z,7.15
2022-11-23T02:59:47.915Z,3.63
2022-11-23T03:05:52.734Z,10.85
2022-11-23T03:11:56.239Z,9.30
2022-11-23T03:17:59.589Z,10.77
2022-11-23T03:24:04.287Z,1.88
2022-11-23T03:30:09.507Z,8.68
2022-11-23T03:36:12.986Z,8.48
2022-11-23T03:42:17.738Z,6.30
2022-11-23T03:48:21.940Z,8.60
2022-11-23T03:54:25.547Z,10.13
2022-11-23T04:00:30.699Z,5.80
2022-11-23T04:06:34.832Z,9.70
2022-11-23T04:12:38.189Z,8.73
2022-11-23T04:18:43.046Z,11.75
2022-11-23T04:24:46.649Z,9.48
2022-11-23T04:30:50.042Z,10.73
2022-11-23T04:36:54.706Z,8.48
2022-11-23T04:43:01.597Z,6.53
2022-11-23T04:49:05.454Z,9.43
2022-11-23T04:55:10.367Z,7.55
2022-11-23T05:01:14.014Z,7.68
2022-11-23T05:07:17.640Z,8.02
2022-11-23T05:13:22.425Z,6.07
2022-11-23T05:19:25.765Z,5.75
2022-11-23T05:25:29.131Z,8.18
2022-11-23T05:31:34.059Z,7.70
2022-11-23T05:37:37.526Z,7.97
2022-11-23T05:43:40.877Z,7.15
2022-11-23T05:49:45.819Z,11.65
2022-11-23T05:55:49.385Z,14.55
2022-11-23T06:01:52.744Z,6.30
2022-11-23T06:07:57.589Z,6.10
2022-11-23T06:14:01.445Z,10.90
2022-11-23T06:20:05.361Z,6.22
2022-11-23T06:26:10.053Z,6.43
2022-11-23T06:32:13.655Z,12.52
2022-11-23T06:38:17.176Z,10.88
2022-11-23T06:44:21.907Z,9.85
2022-11-23T06:50:25.261Z,9.95
2022-11-23T06:56:28.649Z,7.20
2022-11-23T07:02:33.397Z,7.22
2022-11-23T07:08:39.874Z,6.68
2022-11-23T07:14:43.974Z,8.18
2022-11-23T07:20:48.683Z,9.80
2022-11-23T07:26:52.182Z,11.25
2022-11-23T07:32:55.798Z,9.40
2022-11-23T07:39:00.955Z,7.38
2022-11-23T07:45:04.721Z,8.13
2022-11-23T07:51:08.528Z,12.20
2022-11-23T07:57:13.375Z,6.32
2022-11-23T08:03:32.352Z,5.35
2022-11-23T08:09:35.823Z,6.23
2022-11-23T08:15:40.542Z,9.35
2022-11-23T08:21:43.925Z,6.75
2022-11-23T08:27:47.337Z,8.82
2022-11-23T08:33:52.343Z,9.23
2022-11-23T08:39:55.730Z,7.35
2022-11-23T08:46:04.692Z,10.97
2022-11-23T08:52:11.561Z,10.90
2022-11-23T08:58:15.096Z,9.60
2022-11-23T09:04:20.913Z,9.57
2022-11-23T09:10:26.004Z,9.05
2022-11-23T09:16:33.665Z,12.43
2022-11-23T09:22:37.654Z,9.15
2022-11-23T09:28:44.943Z,10.07
2022-11-23T09:34:48.512Z,12.15
2022-11-23T09:40:57.767Z,12.80
2022-11-23T09:47:08.658Z,9.68
2022-11-23T09:53:15.095Z,12.82
2022-11-23T09:59:24.573Z,24.85
2022-11-23T10:05:33.523Z,12.98
2022-11-23T10:11:46.195Z,11.95
2022-11-23T10:18:07.751Z,5.35
2022-11-23T10:24:19.288Z,7.43
2022-11-23T10:30:22.944Z,7.25
2022-11-23T10:36:26.287Z,6.57
2022-11-23T10:42:32.784Z,4.13
2022-11-23T10:48:37.553Z,7.15
2022-11-23T10:54:42.283Z,7.28
2022-11-23T11:00:47.066Z,6.35
2022-11-23T11:06:50.454Z,9.93
2022-11-23T11:12:54.179Z,4.63
2022-11-23T11:18:59.435Z,7.53
2022-11-23T11:25:03.233Z,6.75
2022-11-23T11:31:17.343Z,8.55
2022-11-23T11:37:28.379Z,5.80
2022-11-23T11:43:39.463Z,5.07
2022-11-23T11:49:46.137Z,5.28
2022-11-23T11:55:54.870Z,6.32
2022-11-23T12:02:02.393Z,5.72
2022-11-23T12:08:08.681Z,4.60
2022-11-23T12:14:15.021Z,2.95
2022-11-23T12:20:21.798Z,6.32
2022-11-23T12:26:28.922Z,3.42
2022-11-23T12:32:39.873Z,5.22
2022-11-23T12:38:49.261Z,7.90
2022-11-23T12:45:00.744Z,4.25
2022-11-23T12:51:10.119Z,3.72
2022-11-23T12:57:17.081Z,3.92
2022-11-23T13:03:35.424Z,2.80
2022-11-23T13:09:57.702Z,2.50
2022-11-23T13:16:18.763Z,8.10
2022-11-23T13:22:23.552Z,5.00
2022-11-23T13:28:31.932Z,3.03
2022-11-23T13:34:51.102Z,2.78
2022-11-23T13:40:54.598Z,3.35
2022-11-23T13:47:01.256Z,2.63
2022-11-23T13:53:05.386Z,4.75
2022-11-23T13:59:29.645Z,4.80
2022-11-23T14:05:54.361Z,5.32
2022-11-23T14:12:04.240Z,3.20
2022-11-23T14:18:26.832Z,3.70
2022-11-23T14:24:51.060Z,2.67
2022-11-23T14:31:01.323Z,3.88
2022-11-23T14:37:08.910Z,3.88
2022-11-23T14:43:16.567Z,2.97
2022-11-23T14:49:20.182Z,2.20
2022-11-23T14:55:25.012Z,2.22
2022-11-23T15:01:30.134Z,3.63
2022-11-23T15:07:41.586Z,2.63
2022-11-23T15:13:46.165Z,6.55
2022-11-23T15:19:57.493Z,4.72
2022-11-23T15:26:04.038Z,2.97
2022-11-23T15:32:30.704Z,11.43
2022-11-23T15:38:35.859Z,5.13
2022-11-23T15:44:40.237Z,5.13
2022-11-23T15:50:49.154Z,7.95
2022-11-23T15:56:58.513Z,5.03
2022-11-23T16:03:16.758Z,5.75
2022-11-23T16:09:53.541Z,6.72
2022-11-23T16:16:01.917Z,9.48
2022-11-23T16:22:07.793Z,8.07
2022-11-23T16:28:18.506Z,11.77
2022-11-23T16:34:23.857Z,12.77
2022-11-23T16:40:27.230Z,12.70
2022-11-23T16:46:30.614Z,17.60
2022-11-23T16:52:35.338Z,11.70
2022-11-23T16:58:38.766Z,15.30
2022-11-23T17:04:42.431Z,7.07
2022-11-23T17:10:47.378Z,11.23
2022-11-23T17:16:51.168Z,14.00
2022-11-23T17:23:00.032Z,16.90
2022-11-23T17:29:07.027Z,14.13
2022-11-23T17:35:10.915Z,18.83
2022-11-23T17:41:14.393Z,17.10
2022-11-23T17:47:23.067Z,18.25
2022-11-23T17:53:27.463Z,25.23
2022-11-23T17:59:31.145Z,18.90
2022-11-23T18:05:36.113Z,27.95
2022-11-23T18:11:40.079Z,34.28
2022-11-23T18:17:43.467Z,33.22
2022-11-23T18:23:48.216Z,22.90
2022-11-23T18:29:51.687Z,21.15
2022-11-23T18:35:56.491Z,15.32
2022-11-23T18:42:05.934Z,18.77
2022-11-23T18:48:10.198Z,13.10
2022-11-23T18:54:13.616Z,15.13
2022-11-23T19:00:19.381Z,19.10
2022-11-23T19:06:24.435Z,15.60
2022-11-23T19:12:30.369Z,16.60
2022-11-23T19:18:35.374Z,15.75
2022-11-23T19:24:38.856Z,18.27
2022-11-23T19:30:42.345Z,15.70
2022-11-23T19:36:47.341Z,19.55
2022-11-23T19:42:50.867Z,10.35
2022-11-23T19:48:57.448Z,15.65
2022-11-23T19:55:02.343Z,11.55
2022-11-23T20:01:07.403Z,14.65
2022-11-23T20:07:12.441Z,9.10
2022-11-23T20:13:18.027Z,7.72
2022-11-23T20:19:21.478Z,10.57
2022-11-23T20:25:24.852Z,13.77
2022-11-23T20:31:30.453Z,10.73
2022-11-23T20:37:34.869Z,12.45
2022-11-23T20:43:38.522Z,9.93
2022-11-23T20:49:43.390Z,8.20
2022-11-23T20:55:46.810Z,9.13
2022-11-23T21:01:50.288Z,13.43
2022-11-23T21:07:55.554Z,10.40
2022-11-23T21:14:13.941Z,11.38
2022-11-23T21:20:20.486Z,8.35
2022-11-23T21:26:25.539Z,7.40
2022-11-23T21:32:28.931Z,8.13
2022-11-23T21:38:35.257Z,7.93
2022-11-23T21:44:40.243Z,10.55
2022-11-23T21:50:43.816Z,7.85
2022-11-23T21:56:48.572Z,4.85
2022-11-23T22:02:53.400Z,8.68
2022-11-23T22:08:57.971Z,8.90
2022-11-23T22:15:01.575Z,9.40
2022-11-23T22:21:06.714Z,13.80
2022-11-23T22:27:10.134Z,5.20
2022-11-23T22:33:13.667Z,6.88
2022-11-23T22:39:18.549Z,6.53
2022-11-23T22:45:23.117Z,5.57
2022-11-23T22:51:27.678Z,10.32
2022-11-23T22:57:32.658Z,11.75
2022-11-23T23:03:36.317Z,7.32
2022-11-23T23:09:40.014Z,4.95
2022-11-23T23:15:45.330Z,8.35
2022-11-23T23:21:48.709Z,6.78
2022-11-23T23:27:52.106Z,5.95
2022-11-23T23:33:57.063Z,6.93
2022-11-23T23:40:00.633Z,5.80
2022-11-23T23:46:05.376Z,10.52
2022-11-23T23:52:10.253Z,5.50
2022-11-23T23:58:14.274Z,6.25
